Bei Facebook empfehlenBei Twitter postenGoogle plusPinterest

Das Wetter im Erzgebirge am 06.08.2016

Wetter und Klima am 06.08.2016 Holzhau im Erzgebirge (630m ü.NN)
Letzte gemessene Temperatur und Uhrzeit der Messung23:45:00 Uhr9.00 °C
Temperatur (Maximum / Höchstwert) und Uhrzeit der Messung14:30:00 Uhr21.40 °C
Temperatur (Minimum / Tiefstwert) und Uhrzeit der Messung23:30:008.90 °C
Errechneter Absolutwert der Temperaturschwankungen zwischen Tmin und Tmax des Tages12.50 K
Errechnete Tagesmitteltemperatur14.75208 °C
Gesamt - Niederschlag des Tages (in flüssiger Form)0.00 Liter / m²
Luftdruck (Maximum / Höchstwert) und Zeitpunkt der Messung23:45:00 Uhr1023.80 hPa
Luftdruck (Minimum / Tiefstwert) und Zeitpunkt der Messung00:00:00 Uhr1017.20 hPa
Errechneter Absolutwert der Luftdruckschwankungen des Tages6.60 hPa
Höchste gemessene Windgeschwindigkeit und Uhrzeit der Messung23:45:00 Uhr0.00 km/h
Errechnete Windhäufigkeit in Relation zu den Messwerten des Tages0.00000 %
Niedrigste Windkühle (Windchill) und Zeitpunkt der Messung23:30:00 Uhr8.90 °C
Taupunkt (Maximum / Höchstwert) und Uhrzeit der Messung10:15:00 Uhr15.80 °C
Taupunkt (Minimum / Tiefstwert) und Uhrzeit der Messung23:30:006.90 °C
Anzahl der automatisch eingelesenen Messwerte 96

Detaillierte Wetter- und Klima- Messwerte für den 06.08.2016 in Holzhau im Erzgebirge (630m ü.NN)
ZeitTemperaturLuftdruckRel. LuftfeuchteWindWindrichtungWindchillTaupunktNiederschlag l/m²
23:45:009.00 °C1023.80 hPa87.00 %7.00 °C 
23:30:008.90 °C1023.80 hPa87.00 %6.90 °C 
23:15:009.20 °C1023.50 hPa86.00 %7.00 °C 
23:00:009.30 °C1023.30 hPa85.00 %6.90 °C 
22:45:009.50 °C1023.20 hPa84.00 %6.90 °C 
22:30:009.80 °C1023.30 hPa84.00 %7.20 °C 
22:15:0010.30 °C1023.30 hPa83.00 %7.50 °C 
22:00:0010.80 °C1022.90 hPa82.00 %7.90 °C 
21:45:0011.30 °C1022.80 hPa81.00 %8.20 °C 
21:30:0011.90 °C1022.70 hPa80.00 %8.60 °C 
21:15:0012.60 °C1022.50 hPa78.00 %8.90 °C 
21:00:0013.40 °C1022.20 hPa76.00 %9.30 °C 
20:45:0014.30 °C1022.20 hPa74.00 %9.70 °C 
20:30:0014.90 °C1022.20 hPa72.00 %9.90 °C 
20:15:0015.50 °C1021.80 hPa71.00 %10.30 °C 
20:00:0016.20 °C1021.60 hPa70.00 %10.70 °C 
19:45:0016.70 °C1021.40 hPa69.00 %11.00 °C 
19:30:0017.20 °C1021.40 hPa67.00 %11.00 °C 
19:15:0017.90 °C1021.40 hPa65.00 %11.20 °C 
19:00:0018.40 °C1021.40 hPa63.00 %11.20 °C 
18:45:0018.90 °C1021.30 hPa63.00 %11.70 °C 
18:30:0019.10 °C1021.30 hPa64.00 %12.10 °C 
18:15:0019.30 °C1021.50 hPa64.00 %12.30 °C 
18:00:0019.30 °C1021.20 hPa64.00 %12.30 °C 
17:45:0019.20 °C1021.20 hPa68.00 %13.20 °C 
17:30:0019.00 °C1021.20 hPa67.00 %12.70 °C 
17:15:0019.60 °C1021.20 hPa68.00 %13.50 °C 
17:00:0019.30 °C1021.20 hPa70.00 %13.70 °C 
16:45:0019.70 °C1021.20 hPa69.00 %13.90 °C 
16:30:0018.80 °C1021.20 hPa70.00 %13.20 °C 
16:15:0019.70 °C1020.90 hPa68.00 %13.60 °C 
16:00:0020.10 °C1020.70 hPa67.00 %13.80 °C 
15:45:0020.40 °C1020.90 hPa69.00 %14.50 °C 
15:30:0020.50 °C1020.90 hPa68.00 %14.40 °C 
15:15:0020.40 °C1021.10 hPa68.00 %14.30 °C 
15:00:0019.90 °C1020.90 hPa68.00 %13.80 °C 
14:45:0020.10 °C1020.60 hPa64.00 %13.10 °C 
14:30:0021.40 °C1020.50 hPa66.00 %14.80 °C 
14:15:0020.40 °C1020.60 hPa70.00 %14.70 °C 
14:00:0020.50 °C1020.50 hPa71.00 %15.10 °C 
13:45:0019.90 °C1020.60 hPa71.00 %14.50 °C 
13:30:0020.40 °C1020.70 hPa70.00 %14.70 °C 
13:15:0019.40 °C1020.90 hPa75.00 %14.90 °C 
13:00:0018.90 °C1021.00 hPa74.00 %14.20 °C 
12:45:0018.80 °C1020.60 hPa77.00 %14.70 °C 
12:30:0018.30 °C1020.80 hPa75.00 %13.80 °C 
12:15:0019.20 °C1020.70 hPa76.00 %14.90 °C 
12:00:0018.70 °C1020.50 hPa77.00 %14.60 °C 
11:45:0018.90 °C1020.70 hPa77.00 %14.80 °C 
11:30:0019.10 °C1020.70 hPa80.00 %15.60 °C 
11:15:0018.30 °C1020.70 hPa82.00 %15.20 °C 
11:00:0018.20 °C1020.70 hPa85.00 %15.60 °C 
10:45:0017.50 °C1020.40 hPa89.00 %15.70 °C 
10:30:0016.80 °C1020.40 hPa91.00 %15.30 °C 
10:15:0016.90 °C1020.20 hPa93.00 %15.80 °C 
10:00:0016.40 °C1020.20 hPa95.00 %15.60 °C 
09:45:0015.10 °C1020.20 hPa95.00 %14.30 °C 
09:30:0014.40 °C1020.30 hPa96.00 %13.80 °C 
09:15:0013.40 °C1020.20 hPa95.00 %12.60 °C 
09:00:0013.10 °C1020.30 hPa95.00 %12.30 °C 
08:45:0013.30 °C1020.10 hPa95.00 %12.50 °C 
08:30:0013.60 °C1019.80 hPa95.00 %12.80 °C 
08:15:0013.10 °C1019.60 hPa96.00 %12.50 °C 
08:00:0012.60 °C1019.60 hPa96.00 %12.00 °C 
07:45:0012.40 °C1019.50 hPa96.00 %11.80 °C 
07:30:0012.40 °C1019.50 hPa96.00 %11.80 °C 
07:15:0012.10 °C1019.30 hPa96.00 %11.50 °C 
07:00:0011.90 °C1019.30 hPa95.00 %11.10 °C 
06:45:0011.80 °C1019.40 hPa95.00 %11.00 °C 
06:30:0011.80 °C1019.20 hPa95.00 %11.00 °C 
06:15:0011.60 °C1019.20 hPa95.00 %10.80 °C 
06:00:0011.60 °C1019.20 hPa95.00 %10.80 °C 
05:45:0011.60 °C1019.20 hPa95.00 %10.80 °C 
05:30:0011.60 °C1019.10 hPa95.00 %10.80 °C 
05:15:0011.60 °C1018.90 hPa95.00 %10.80 °C 
05:00:0011.60 °C1019.00 hPa95.00 %10.80 °C 
04:45:0011.50 °C1018.90 hPa95.00 %10.70 °C 
04:30:0011.40 °C1018.80 hPa95.00 %10.60 °C 
04:15:0011.20 °C1018.60 hPa95.00 %10.40 °C 
04:00:0011.10 °C1018.50 hPa95.00 %10.30 °C 
03:45:0011.10 °C1018.60 hPa95.00 %10.30 °C 
03:30:0010.80 °C1018.30 hPa95.00 %10.00 °C 
03:15:0010.80 °C1018.10 hPa94.00 %9.90 °C 
03:00:0011.00 °C1017.90 hPa94.00 %10.10 °C 
02:45:0011.20 °C1018.00 hPa94.00 %10.30 °C 
02:30:0011.40 °C1017.90 hPa94.00 %10.50 °C 
02:15:0011.40 °C1017.80 hPa94.00 %10.50 °C 
02:00:0011.50 °C1017.60 hPa94.00 %10.60 °C 
01:45:0011.30 °C1017.60 hPa94.00 %10.40 °C 
01:30:0010.80 °C1017.70 hPa94.00 %9.90 °C 
01:15:0010.20 °C1017.60 hPa94.00 %9.30 °C 
01:00:0010.10 °C1017.50 hPa93.00 %9.00 °C 
00:45:0010.10 °C1017.50 hPa93.00 %9.00 °C 
00:30:0010.10 °C1017.50 hPa93.00 %9.00 °C 
00:15:0010.10 °C1017.40 hPa93.00 %9.00 °C 
00:00:0010.10 °C1017.20 hPa93.00 %9.00 °C 

Permanenter Link zu dieser Seite: Wetter im Erzgebirge am 06.08.2016
Performance-Info: Die Erstellung der Seite / Statistik(en) / Tabelle(n) erforderte 5 Datenbankserver-Abfrage(n) und dauerte 71 Millisekunden. (Dieser Messwert ist von der Gesamt-Auslastung des Servers abhängig.)
Erzgebirge - Wetter | Erzgebirge - Wetter (Mobilgeräte) | Komplette Klimadatenbank